createdAt,value
2019-06-01T00:01:38.156Z,77.20
2019-06-01T00:04:06.602Z,77.20
2019-06-01T00:06:35.016Z,76.90
2019-06-01T00:09:05.126Z,77.80
2019-06-01T00:11:33.555Z,78.10
2019-06-01T00:14:01.954Z,78.00
2019-06-01T00:16:30.349Z,78.00
2019-06-01T00:18:58.768Z,77.80
2019-06-01T00:21:27.233Z,78.00
2019-06-01T00:23:55.611Z,78.20
2019-06-01T00:26:24.020Z,78.90
2019-06-01T00:28:53.038Z,79.80
2019-06-01T00:31:21.540Z,82.10
2019-06-01T00:33:49.929Z,84.00
2019-06-01T00:36:18.321Z,83.40
2019-06-01T00:38:47.839Z,81.70
2019-06-01T00:41:16.383Z,82.50
2019-06-01T00:43:44.786Z,83.50
2019-06-01T00:46:13.191Z,82.90
2019-06-01T00:48:41.705Z,82.80
2019-06-01T00:51:10.057Z,83.00
2019-06-01T00:53:38.464Z,84.60
2019-06-01T00:56:06.870Z,85.60
2019-06-01T00:58:35.257Z,84.40
2019-06-01T01:01:03.681Z,83.50
2019-06-01T01:03:32.070Z,83.20
2019-06-01T01:06:00.474Z,82.20
2019-06-01T01:08:28.891Z,82.20
2019-06-01T01:10:57.310Z,81.60
2019-06-01T01:13:27.282Z,81.70
2019-06-01T01:15:55.842Z,81.50
2019-06-01T01:18:24.425Z,81.40
2019-06-01T01:20:54.075Z,81.00
2019-06-01T01:23:22.716Z,81.00
2019-06-01T01:25:51.112Z,80.70
2019-06-01T01:28:19.720Z,80.50
2019-06-01T01:31:03.116Z,80.60
2019-06-01T01:33:18.190Z,80.30
2019-06-01T01:35:47.541Z,80.60
2019-06-01T01:38:16.144Z,80.60
2019-06-01T01:40:44.551Z,80.80
2019-06-01T01:43:12.950Z,81.00
2019-06-01T01:45:41.982Z,80.50
2019-06-01T01:48:10.440Z,80.20
2019-06-01T01:50:38.811Z,79.90
2019-06-01T01:53:07.225Z,80.50
2019-06-01T01:55:35.625Z,80.80
2019-06-01T01:58:04.032Z,81.10
2019-06-01T02:00:46.114Z,81.40
2019-06-01T02:03:14.491Z,81.10
2019-06-01T02:05:42.916Z,80.50
2019-06-01T02:08:11.353Z,80.70
2019-06-01T02:10:39.798Z,81.80
2019-06-01T02:13:08.377Z,83.20
2019-06-01T02:15:37.693Z,83.20
2019-06-01T02:18:06.177Z,83.20
2019-06-01T02:20:34.618Z,82.90
2019-06-01T02:23:03.325Z,83.20
2019-06-01T02:25:31.768Z,83.30
2019-06-01T02:28:01.395Z,83.10
2019-06-01T02:30:30.057Z,82.80
2019-06-01T02:33:00.100Z,83.60
2019-06-01T02:35:28.681Z,82.70
2019-06-01T02:37:58.606Z,82.20
2019-06-01T02:40:27.090Z,82.10
2019-06-01T02:42:57.163Z,81.80
2019-06-01T02:45:25.720Z,80.60
2019-06-01T02:47:55.366Z,81.10
2019-06-01T02:50:23.915Z,81.50
2019-06-01T02:52:52.432Z,81.80
2019-06-01T02:55:20.807Z,81.30
2019-06-01T02:57:49.229Z,81.90
2019-06-01T03:00:19.582Z,81.90
2019-06-01T03:02:48.060Z,81.80
2019-06-01T03:05:16.456Z,81.50
2019-06-01T03:07:44.855Z,81.40
2019-06-01T03:10:13.313Z,82.40
2019-06-01T03:12:44.774Z,82.10
2019-06-01T03:15:14.974Z,83.10
2019-06-01T03:17:49.031Z,83.40
2019-06-01T03:20:17.383Z,84.00
2019-06-01T03:22:47.428Z,83.20
2019-06-01T03:25:15.809Z,82.80
2019-06-01T03:27:44.403Z,81.90
2019-06-01T03:30:15.435Z,81.70
2019-06-01T03:32:42.857Z,81.80
2019-06-01T03:35:11.235Z,81.30
2019-06-01T03:37:39.622Z,81.80
2019-06-01T03:40:15.820Z,81.70
2019-06-01T03:42:38.063Z,83.00
2019-06-01T03:45:07.639Z,82.50
2019-06-01T03:47:36.113Z,83.00
2019-06-01T03:50:06.931Z,83.10
2019-06-01T03:52:35.361Z,83.10
2019-06-01T03:55:05.876Z,83.30
2019-06-01T03:57:34.413Z,83.30
2019-06-01T04:00:03.371Z,83.00
2019-06-01T04:02:33.355Z,83.00
2019-06-01T04:05:03.340Z,82.70
2019-06-01T04:07:31.934Z,81.90
2019-06-01T04:10:01.514Z,81.90
2019-06-01T04:12:30.139Z,81.90
2019-06-01T04:14:58.595Z,81.50
2019-06-01T04:17:26.966Z,81.10
2019-06-01T04:19:55.361Z,81.80
2019-06-01T04:22:23.730Z,81.50
2019-06-01T04:24:52.131Z,81.80
2019-06-01T04:27:20.496Z,82.10
2019-06-01T04:29:48.923Z,82.50
2019-06-01T04:32:17.247Z,82.20
2019-06-01T04:34:45.635Z,81.80
2019-06-01T04:37:14.013Z,81.40
2019-06-01T04:39:42.404Z,81.70
2019-06-01T04:42:11.801Z,82.30
2019-06-01T04:44:40.400Z,83.10
2019-06-01T04:47:09.275Z,83.50
2019-06-01T04:49:38.960Z,83.40
2019-06-01T04:52:07.342Z,83.20
2019-06-01T04:54:35.743Z,83.10
2019-06-01T04:57:04.762Z,82.50
2019-06-01T04:59:33.321Z,83.30
2019-06-01T05:02:01.830Z,83.00
2019-06-01T05:04:30.178Z,82.70
2019-06-01T05:06:58.555Z,82.00
2019-06-01T05:09:26.933Z,80.90
2019-06-01T05:11:55.313Z,80.20
2019-06-01T05:14:23.702Z,80.00
2019-06-01T05:16:52.087Z,80.30
2019-06-01T05:19:20.591Z,79.20
2019-06-01T05:21:48.984Z,78.50
2019-06-01T05:24:17.378Z,77.70
2019-06-01T05:26:45.909Z,77.50
2019-06-01T05:29:15.555Z,76.10
2019-06-01T05:31:44.238Z,76.60
2019-06-01T05:34:13.766Z,76.60
2019-06-01T05:36:42.978Z,76.00
2019-06-01T05:39:12.333Z,75.10
2019-06-01T05:41:40.767Z,74.20
2019-06-01T05:44:09.267Z,74.30
2019-06-01T05:46:37.697Z,72.90
2019-06-01T05:49:06.046Z,72.30
2019-06-01T05:51:34.441Z,70.40
2019-06-01T05:54:02.819Z,71.10
2019-06-01T05:56:31.305Z,71.80
2019-06-01T05:58:59.666Z,72.70
2019-06-01T06:01:28.062Z,72.10
2019-06-01T06:03:56.437Z,72.80
2019-06-01T06:06:24.902Z,71.60
2019-06-01T06:08:53.279Z,71.20
2019-06-01T06:11:21.672Z,70.70
2019-06-01T06:13:50.044Z,70.90
2019-06-01T06:16:20.709Z,71.20
2019-06-01T06:18:48.470Z,68.90
2019-06-01T06:21:18.240Z,69.20
2019-06-01T06:23:46.850Z,68.00
2019-06-01T06:26:16.826Z,67.60
2019-06-01T06:28:45.254Z,67.70
2019-06-01T06:31:14.930Z,69.20
2019-06-01T06:33:55.605Z,65.60
2019-06-01T06:36:13.561Z,68.40
2019-06-01T06:38:41.983Z,67.60
2019-06-01T06:41:10.382Z,65.80
2019-06-01T06:43:38.754Z,64.00
2019-06-01T06:46:07.144Z,63.60
2019-06-01T06:48:35.518Z,63.80
2019-06-01T06:51:03.902Z,60.40
2019-06-01T06:53:35.099Z,62.90
2019-06-01T06:56:02.351Z,64.10
2019-06-01T06:58:30.726Z,61.00
2019-06-01T07:00:59.310Z,59.10
2019-06-01T07:03:27.978Z,60.30
2019-06-01T07:05:56.483Z,59.30
2019-06-01T07:08:25.897Z,59.70
2019-06-01T07:10:56.696Z,58.90
2019-06-01T07:13:25.432Z,59.50
2019-06-01T07:15:53.914Z,57.90
2019-06-01T07:18:23.533Z,58.60
2019-06-01T07:20:52.192Z,58.90
2019-06-01T07:23:21.616Z,58.50
2019-06-01T07:25:50.126Z,57.10
2019-06-01T07:28:18.522Z,56.80
2019-06-01T07:30:50.584Z,56.10
2019-06-01T07:33:16.919Z,56.20
2019-06-01T07:35:45.292Z,57.00
2019-06-01T07:38:13.679Z,56.00
2019-06-01T07:40:42.038Z,56.20
2019-06-01T07:43:10.427Z,56.00
2019-06-01T07:45:38.856Z,58.10
2019-06-01T07:48:07.300Z,54.70
2019-06-01T07:50:35.691Z,54.80
2019-06-01T07:53:04.089Z,57.00
2019-06-01T07:55:32.446Z,55.80
2019-06-01T07:58:00.771Z,54.00
2019-06-01T08:00:29.132Z,51.40
2019-06-01T08:02:57.518Z,53.10
2019-06-01T08:05:26.530Z,53.70
2019-06-01T08:07:55.061Z,54.40
2019-06-01T08:10:24.875Z,54.70
2019-06-01T08:12:54.048Z,51.60
2019-06-01T08:15:23.535Z,53.40
2019-06-01T08:17:53.979Z,51.60
2019-06-01T08:20:22.359Z,52.60
2019-06-01T08:22:50.795Z,51.80
2019-06-01T08:25:19.339Z,52.40
2019-06-01T08:27:47.948Z,51.00
2019-06-01T08:30:16.398Z,51.30
2019-06-01T08:32:44.864Z,51.10
2019-06-01T08:35:13.358Z,50.20
2019-06-01T08:37:41.882Z,52.80
2019-06-01T08:40:10.259Z,51.70
2019-06-01T08:42:38.671Z,51.80
2019-06-01T08:45:07.213Z,50.40
2019-06-01T08:47:35.782Z,51.40
2019-06-01T08:50:04.995Z,47.40
2019-06-01T08:52:34.208Z,48.10
2019-06-01T08:55:02.717Z,49.60
2019-06-01T08:57:32.365Z,48.70
2019-06-01T09:00:01.763Z,45.20
2019-06-01T09:02:30.867Z,47.60
2019-06-01T09:04:59.275Z,47.70
2019-06-01T09:07:28.896Z,46.70
2019-06-01T09:09:57.468Z,46.80
2019-06-01T09:12:27.160Z,48.70
2019-06-01T09:14:55.691Z,47.60
2019-06-01T09:17:25.262Z,44.70
2019-06-01T09:19:53.638Z,46.20
2019-06-01T09:22:22.032Z,46.40
2019-06-01T09:24:53.230Z,45.40
2019-06-01T09:27:20.442Z,45.40
2019-06-01T09:29:48.807Z,46.00
2019-06-01T09:32:17.191Z,45.40
2019-06-01T09:34:45.559Z,45.70
2019-06-01T09:37:13.950Z,47.30
2019-06-01T09:39:42.322Z,44.40
2019-06-01T09:42:10.683Z,44.40
2019-06-01T09:44:39.153Z,48.00
2019-06-01T09:47:07.911Z,44.70
2019-06-01T09:49:36.303Z,46.30
2019-06-01T09:52:04.937Z,47.30
2019-06-01T09:54:34.602Z,45.50
2019-06-01T09:57:03.369Z,44.90
2019-06-01T09:59:32.015Z,45.90
2019-06-01T10:02:00.415Z,41.80
2019-06-01T10:04:30.137Z,42.00
2019-06-01T10:06:58.557Z,43.00
2019-06-01T10:09:27.015Z,42.80
2019-06-01T10:11:55.412Z,44.50
2019-06-01T10:14:23.912Z,43.90
2019-06-01T10:16:52.351Z,41.60
2019-06-01T10:19:20.824Z,42.20
2019-06-01T10:21:49.197Z,42.80
2019-06-01T10:24:17.745Z,40.80
2019-06-01T10:26:46.492Z,41.60
2019-06-01T10:29:14.952Z,40.60
2019-06-01T10:31:43.323Z,41.70
2019-06-01T10:34:11.731Z,40.90
2019-06-01T10:36:40.274Z,42.40
2019-06-01T10:39:08.684Z,43.30
2019-06-01T10:41:37.422Z,42.20
2019-06-01T10:44:06.005Z,42.40
2019-06-01T10:46:35.802Z,43.30
2019-06-01T10:49:04.527Z,43.60
2019-06-01T10:51:34.067Z,43.40
2019-06-01T10:54:02.790Z,42.60
2019-06-01T10:56:32.291Z,42.30
2019-06-01T10:59:00.889Z,43.50
2019-06-01T11:01:32.269Z,40.70
2019-06-01T11:03:59.267Z,42.60
2019-06-01T11:06:40.240Z,42.80
2019-06-01T11:09:08.204Z,41.00
2019-06-01T11:11:36.943Z,41.40
2019-06-01T11:14:05.419Z,41.80
2019-06-01T11:16:35.093Z,40.20
2019-06-01T11:19:03.539Z,41.50
2019-06-01T11:21:33.402Z,39.60
2019-06-01T11:24:02.106Z,40.90
2019-06-01T11:26:30.646Z,40.50
2019-06-01T11:28:59.159Z,40.20
2019-06-01T11:31:27.841Z,38.20
2019-06-01T11:33:56.181Z,37.40
2019-06-01T11:36:24.566Z,38.10
2019-06-01T11:38:53.003Z,39.10
2019-06-01T11:41:21.482Z,37.00
2019-06-01T11:43:49.851Z,38.20
2019-06-01T11:46:18.423Z,38.20
2019-06-01T11:48:46.783Z,37.30
2019-06-01T11:51:15.195Z,39.00
2019-06-01T11:53:43.607Z,39.90
2019-06-01T11:56:15.269Z,37.10
2019-06-01T11:58:43.614Z,38.60
2019-06-01T12:01:11.979Z,40.00
2019-06-01T12:03:41.702Z,40.00
2019-06-01T12:06:10.255Z,40.50
2019-06-01T12:08:39.870Z,40.40
2019-06-01T12:11:08.410Z,40.00
2019-06-01T12:13:37.964Z,38.90
2019-06-01T12:16:06.452Z,37.20
2019-06-01T12:18:34.817Z,37.90
2019-06-01T12:21:03.214Z,40.80
2019-06-01T12:23:34.312Z,40.20
2019-06-01T12:26:02.705Z,40.00
2019-06-01T12:28:31.191Z,38.60
2019-06-01T12:30:59.584Z,39.20
2019-06-01T12:33:27.947Z,39.70
2019-06-01T12:35:56.346Z,39.60
2019-06-01T12:38:24.742Z,38.70
2019-06-01T12:40:53.154Z,38.10
2019-06-01T12:43:21.507Z,38.60
2019-06-01T12:46:05.440Z,38.90
2019-06-01T12:48:19.921Z,38.70
2019-06-01T12:50:50.862Z,39.70
2019-06-01T12:53:18.810Z,38.50
2019-06-01T12:55:47.296Z,40.40
2019-06-01T12:58:15.663Z,36.60
2019-06-01T13:00:44.282Z,37.30
2019-06-01T13:03:12.961Z,37.30
2019-06-01T13:05:41.545Z,38.70
2019-06-01T13:08:10.358Z,38.10
2019-06-01T13:10:38.752Z,38.60
2019-06-01T13:13:07.119Z,36.00
2019-06-01T13:15:35.494Z,38.30
2019-06-01T13:18:03.882Z,36.90
2019-06-01T13:20:34.527Z,37.20
2019-06-01T13:23:02.930Z,37.50
2019-06-01T13:25:31.360Z,36.70
2019-06-01T13:27:59.892Z,37.60
2019-06-01T13:30:28.240Z,37.00
2019-06-01T13:32:56.637Z,36.40
2019-06-01T13:35:24.997Z,37.10
2019-06-01T13:38:10.646Z,36.80
2019-06-01T13:40:23.407Z,37.40
2019-06-01T13:42:51.813Z,35.90
2019-06-01T13:45:20.467Z,35.40
2019-06-01T13:47:49.844Z,34.50
2019-06-01T13:50:18.307Z,35.90
2019-06-01T13:52:47.856Z,35.70
2019-06-01T13:55:16.368Z,34.70
2019-06-01T13:57:44.774Z,36.30
2019-06-01T14:00:29.434Z,37.00
2019-06-01T14:02:50.813Z,37.00
2019-06-01T14:05:18.415Z,37.80
2019-06-01T14:07:47.451Z,36.90
2019-06-01T14:10:15.934Z,36.60
2019-06-01T14:12:45.266Z,36.50
2019-06-01T14:15:13.691Z,37.50
2019-06-01T14:17:42.074Z,36.40
2019-06-01T14:20:10.430Z,34.70
2019-06-01T14:22:39.114Z,36.00
2019-06-01T14:25:13.717Z,35.30
2019-06-01T14:27:38.294Z,36.60
2019-06-01T14:30:08.332Z,35.50
2019-06-01T14:32:36.728Z,38.40
2019-06-01T14:35:08.324Z,36.10
2019-06-01T14:37:36.714Z,34.70
2019-06-01T14:40:06.317Z,36.80
2019-06-01T14:42:34.761Z,37.20
2019-06-01T14:45:03.583Z,36.10
2019-06-01T14:47:31.978Z,34.30
2019-06-01T14:50:00.376Z,34.90
2019-06-01T14:52:28.743Z,34.40
2019-06-01T14:54:58.035Z,36.60
2019-06-01T14:57:26.654Z,36.90
2019-06-01T14:59:56.052Z,36.10
2019-06-01T15:02:24.535Z,37.50
2019-06-01T15:04:54.189Z,37.30
2019-06-01T15:07:22.800Z,36.90
2019-06-01T15:09:52.227Z,36.50
2019-06-01T15:12:20.749Z,36.10
2019-06-01T15:14:49.056Z,35.50
2019-06-01T15:17:17.431Z,37.50
2019-06-01T15:19:45.798Z,36.20
2019-06-01T15:22:14.153Z,33.90
2019-06-01T15:24:42.892Z,35.10
2019-06-01T15:27:11.287Z,35.90
2019-06-01T15:29:39.679Z,36.10
2019-06-01T15:32:08.054Z,36.00
2019-06-01T15:34:36.444Z,35.00
2019-06-01T15:37:05.040Z,36.80
2019-06-01T15:39:33.388Z,37.00
2019-06-01T15:42:01.764Z,38.30
2019-06-01T15:44:30.151Z,38.20
2019-06-01T15:46:59.734Z,37.60
2019-06-01T15:49:28.225Z,37.60
2019-06-01T15:51:57.729Z,37.80
2019-06-01T15:54:27.145Z,37.50
2019-06-01T15:56:56.319Z,37.10
2019-06-01T15:59:25.258Z,37.40
2019-06-01T16:01:54.903Z,37.20
2019-06-01T16:04:23.641Z,37.30
2019-06-01T16:06:53.063Z,35.80
2019-06-01T16:09:21.677Z,36.50
2019-06-01T16:11:50.040Z,36.90
2019-06-01T16:14:18.436Z,36.50
2019-06-01T16:16:46.799Z,36.40
2019-06-01T16:19:15.185Z,37.10
2019-06-01T16:21:43.553Z,37.30
2019-06-01T16:24:11.867Z,37.40
2019-06-01T16:26:40.235Z,35.60
2019-06-01T16:29:08.631Z,36.30
2019-06-01T16:31:37.000Z,36.20
2019-06-01T16:34:05.417Z,36.20
2019-06-01T16:36:33.759Z,37.90
2019-06-01T16:39:05.255Z,37.60
2019-06-01T16:41:32.162Z,37.80
2019-06-01T16:44:01.767Z,37.20
2019-06-01T16:46:30.228Z,37.70
2019-06-01T16:48:59.533Z,37.90
2019-06-01T16:51:47.638Z,37.70
2019-06-01T16:54:16.020Z,38.40
2019-06-01T16:56:44.880Z,38.70
2019-06-01T16:59:14.211Z,39.00
2019-06-01T17:01:42.582Z,39.20
2019-06-01T17:04:10.976Z,38.80
2019-06-01T17:06:39.343Z,38.70
2019-06-01T17:09:07.869Z,39.40
2019-06-01T17:11:36.267Z,39.20
2019-06-01T17:14:05.625Z,38.70
2019-06-01T17:16:34.109Z,38.90
2019-06-01T17:19:03.075Z,39.50
2019-06-01T17:21:31.707Z,38.70
2019-06-01T17:24:00.062Z,37.70
2019-06-01T17:26:28.511Z,38.00
2019-06-01T17:28:57.908Z,38.70
2019-06-01T17:31:26.350Z,39.30
2019-06-01T17:33:55.075Z,39.10
2019-06-01T17:36:23.559Z,39.60
2019-06-01T17:38:51.920Z,40.40
2019-06-01T17:41:20.852Z,40.60
2019-06-01T17:43:49.207Z,40.40
2019-06-01T17:46:17.596Z,41.10
2019-06-01T17:48:45.958Z,41.40
2019-06-01T17:51:14.346Z,41.70
2019-06-01T17:53:42.723Z,42.00
2019-06-01T17:56:12.154Z,42.70
2019-06-01T17:58:40.717Z,42.80
2019-06-01T18:01:09.953Z,42.90
2019-06-01T18:03:38.364Z,43.10
2019-06-01T18:06:07.776Z,43.40
2019-06-01T18:08:36.224Z,43.80
2019-06-01T18:11:04.615Z,44.00
2019-06-01T18:13:32.979Z,44.40
2019-06-01T18:16:02.991Z,44.30
2019-06-01T18:18:31.376Z,45.20
2019-06-01T18:20:59.758Z,45.30
2019-06-01T18:23:28.159Z,45.70
2019-06-01T18:25:56.549Z,45.80
2019-06-01T18:28:24.986Z,46.00
2019-06-01T18:30:53.507Z,46.50
2019-06-01T18:33:21.971Z,46.80
2019-06-01T18:35:50.358Z,46.70
2019-06-01T18:38:18.862Z,47.20
2019-06-01T18:40:49.192Z,47.30
2019-06-01T18:43:18.541Z,48.00
2019-06-01T18:45:47.141Z,48.30
2019-06-01T18:48:15.695Z,48.50
2019-06-01T18:50:44.083Z,48.90
2019-06-01T18:53:12.713Z,49.30
2019-06-01T18:55:42.199Z,49.00
2019-06-01T18:58:10.644Z,49.40
2019-06-01T19:00:40.094Z,49.50
2019-06-01T19:03:09.014Z,50.10
2019-06-01T19:05:37.518Z,50.60
2019-06-01T19:08:07.042Z,50.60
2019-06-01T19:10:35.664Z,50.80
2019-06-01T19:13:05.612Z,51.40
2019-06-01T19:15:34.493Z,51.60
2019-06-01T19:18:02.991Z,52.10
2019-06-01T19:20:33.306Z,51.80
2019-06-01T19:23:01.351Z,52.50
2019-06-01T19:25:31.686Z,52.30
2019-06-01T19:28:00.072Z,52.50
2019-06-01T19:30:36.050Z,52.30
2019-06-01T19:33:06.752Z,52.30
2019-06-01T19:35:35.211Z,53.10
2019-06-01T19:38:03.600Z,53.40
2019-06-01T19:40:34.088Z,53.90
2019-06-01T19:43:02.716Z,54.30
2019-06-01T19:45:31.079Z,55.30
2019-06-01T19:47:59.471Z,56.30
2019-06-01T19:50:27.851Z,56.70
2019-06-01T19:52:56.244Z,57.50
2019-06-01T19:55:24.645Z,58.00
2019-06-01T19:57:53.035Z,58.90
2019-06-01T20:00:22.460Z,58.90
2019-06-01T20:02:50.960Z,59.80
2019-06-01T20:05:19.341Z,59.30
2019-06-01T20:07:47.998Z,59.40
2019-06-01T20:10:16.391Z,61.20
2019-06-01T20:12:44.742Z,62.50
2019-06-01T20:15:13.356Z,64.80
2019-06-01T20:17:41.800Z,67.50
2019-06-01T20:20:10.717Z,65.10
2019-06-01T20:22:39.323Z,64.70
2019-06-01T20:25:08.359Z,64.80
2019-06-01T20:27:36.882Z,64.70
2019-06-01T20:30:07.942Z,65.00
2019-06-01T20:32:36.330Z,67.00
2019-06-01T20:35:05.882Z,66.70
2019-06-01T20:37:34.266Z,65.10
2019-06-01T20:40:02.569Z,64.90
2019-06-01T20:42:32.940Z,65.10
2019-06-01T20:45:00.971Z,64.60
2019-06-01T20:47:29.559Z,63.70
2019-06-01T20:49:57.990Z,64.10
2019-06-01T20:52:26.308Z,65.60
2019-06-01T20:54:54.659Z,66.00
2019-06-01T20:57:24.022Z,66.20
2019-06-01T20:59:52.454Z,66.70
2019-06-01T21:02:21.808Z,67.60
2019-06-01T21:04:50.203Z,67.70
2019-06-01T21:07:19.825Z,67.70
2019-06-01T21:09:48.297Z,67.10
2019-06-01T21:12:16.691Z,67.50
2019-06-01T21:14:45.062Z,67.00
2019-06-01T21:17:14.368Z,67.90
2019-06-01T21:19:42.761Z,65.80
2019-06-01T21:22:11.175Z,67.30
2019-06-01T21:24:39.570Z,67.60
2019-06-01T21:27:07.934Z,67.30
2019-06-01T21:29:36.327Z,69.00
2019-06-01T21:32:04.705Z,68.20
2019-06-01T21:34:34.377Z,68.60
2019-06-01T21:37:02.773Z,68.20
2019-06-01T21:39:31.128Z,68.80
2019-06-01T21:41:59.558Z,69.80
2019-06-01T21:44:27.885Z,71.00
2019-06-01T21:46:56.257Z,70.50
2019-06-01T21:49:25.865Z,70.50
2019-06-01T21:51:54.315Z,70.00
2019-06-01T21:54:22.714Z,70.60
2019-06-01T21:56:51.071Z,70.60
2019-06-01T21:59:20.511Z,71.40
2019-06-01T22:01:49.031Z,70.80
2019-06-01T22:04:18.654Z,70.90
2019-06-01T22:06:47.139Z,71.20
2019-06-01T22:09:15.564Z,71.10
2019-06-01T22:11:44.775Z,70.90
2019-06-01T22:14:13.147Z,70.50
2019-06-01T22:16:41.526Z,69.60
2019-06-01T22:19:09.996Z,69.40
2019-06-01T22:21:38.382Z,69.10
2019-06-01T22:24:06.756Z,69.60
2019-06-01T22:26:35.126Z,70.00
2019-06-01T22:29:03.520Z,70.50
2019-06-01T22:31:31.895Z,71.10
2019-06-01T22:34:00.291Z,71.10
2019-06-01T22:36:29.391Z,70.50
2019-06-01T22:38:57.911Z,71.00
2019-06-01T22:41:26.297Z,71.30
2019-06-01T22:43:54.704Z,71.20
2019-06-01T22:46:24.358Z,73.80
2019-06-01T22:48:52.977Z,74.30
2019-06-01T22:51:21.349Z,73.50
2019-06-01T22:53:49.734Z,73.40
2019-06-01T22:56:18.107Z,73.40
2019-06-01T22:58:46.492Z,75.00
2019-06-01T23:01:14.864Z,74.70
2019-06-01T23:03:43.347Z,74.30
2019-06-01T23:06:11.698Z,74.30
2019-06-01T23:08:40.090Z,73.40
2019-06-01T23:11:08.456Z,73.00
2019-06-01T23:13:52.226Z,72.70
2019-06-01T23:16:08.383Z,72.80
2019-06-01T23:18:37.005Z,73.20
2019-06-01T23:21:05.409Z,73.60
2019-06-01T23:23:33.815Z,73.50
2019-06-01T23:26:02.231Z,73.10
2019-06-01T23:28:30.619Z,72.80
2019-06-01T23:30:59.007Z,73.40
2019-06-01T23:33:27.375Z,74.50
2019-06-01T23:35:55.790Z,74.30
2019-06-01T23:38:24.549Z,74.40
2019-06-01T23:40:53.076Z,75.40
2019-06-01T23:43:22.609Z,76.30
2019-06-01T23:45:51.184Z,77.70
2019-06-01T23:48:19.631Z,77.80
2019-06-01T23:50:48.010Z,77.40
2019-06-01T23:53:16.519Z,77.60
2019-06-01T23:55:44.908Z,77.20
2019-06-01T23:58:13.286Z,78.00
